sensor_id;sensor_type;location;lat;lon;timestamp;P1;durP1;ratioP1;P2;durP2;ratioP2
72590;SDS011;60625;51.212;5.952;2023-07-09T00:02:26;18.80;;;9.20;;
72590;SDS011;60625;51.212;5.952;2023-07-09T00:07:30;17.50;;;8.60;;
72590;SDS011;60625;51.212;5.952;2023-07-09T00:12:31;16.10;;;8.50;;
72590;SDS011;60625;51.212;5.952;2023-07-09T00:17:34;15.80;;;9.50;;
72590;SDS011;60625;51.212;5.952;2023-07-09T00:22:34;16.60;;;9.00;;
72590;SDS011;60625;51.212;5.952;2023-07-09T00:27:35;17.80;;;9.20;;
72590;SDS011;60625;51.212;5.952;2023-07-09T00:32:36;16.10;;;8.90;;
72590;SDS011;60625;51.212;5.952;2023-07-09T00:37:44;15.90;;;8.40;;
72590;SDS011;60625;51.212;5.952;2023-07-09T00:42:48;16.50;;;9.50;;
72590;SDS011;60625;51.212;5.952;2023-07-09T00:47:56;19.10;;;11.60;;
72590;SDS011;60625;51.212;5.952;2023-07-09T00:53:02;15.30;;;8.20;;
72590;SDS011;60625;51.212;5.952;2023-07-09T00:58:11;13.60;;;7.10;;
72590;SDS011;60625;51.212;5.952;2023-07-09T01:03:23;17.00;;;7.90;;
72590;SDS011;60625;51.212;5.952;2023-07-09T01:08:31;17.80;;;8.90;;
72590;SDS011;60625;51.212;5.952;2023-07-09T01:13:33;18.70;;;11.60;;
72590;SDS011;60625;51.212;5.952;2023-07-09T01:18:35;14.40;;;8.60;;
72590;SDS011;60625;51.212;5.952;2023-07-09T01:23:37;20.70;;;8.90;;
72590;SDS011;60625;51.212;5.952;2023-07-09T01:28:37;17.00;;;9.20;;
72590;SDS011;60625;51.212;5.952;2023-07-09T01:33:44;20.40;;;10.00;;
72590;SDS011;60625;51.212;5.952;2023-07-09T01:38:45;17.70;;;9.90;;
72590;SDS011;60625;51.212;5.952;2023-07-09T01:43:46;17.60;;;10.50;;
72590;SDS011;60625;51.212;5.952;2023-07-09T01:48:49;16.90;;;9.80;;
72590;SDS011;60625;51.212;5.952;2023-07-09T01:53:53;16.10;;;10.00;;
72590;SDS011;60625;51.212;5.952;2023-07-09T01:58:54;17.00;;;10.40;;
72590;SDS011;60625;51.212;5.952;2023-07-09T02:04:01;17.30;;;10.20;;
72590;SDS011;60625;51.212;5.952;2023-07-09T02:09:02;18.70;;;9.70;;
72590;SDS011;60625;51.212;5.952;2023-07-09T02:14:02;16.60;;;9.50;;
72590;SDS011;60625;51.212;5.952;2023-07-09T02:19:03;19.70;;;9.50;;
72590;SDS011;60625;51.212;5.952;2023-07-09T02:24:04;19.50;;;10.70;;
72590;SDS011;60625;51.212;5.952;2023-07-09T02:29:05;18.00;;;11.10;;
72590;SDS011;60625;51.212;5.952;2023-07-09T02:34:06;16.40;;;10.30;;
72590;SDS011;60625;51.212;5.952;2023-07-09T02:39:07;15.40;;;9.10;;
72590;SDS011;60625;51.212;5.952;2023-07-09T02:44:08;13.80;;;9.60;;
72590;SDS011;60625;51.212;5.952;2023-07-09T02:49:11;18.90;;;9.40;;
72590;SDS011;60625;51.212;5.952;2023-07-09T02:54:13;19.80;;;8.50;;
72590;SDS011;60625;51.212;5.952;2023-07-09T02:59:13;13.70;;;6.80;;
72590;SDS011;60625;51.212;5.952;2023-07-09T03:04:14;13.40;;;7.60;;
72590;SDS011;60625;51.212;5.952;2023-07-09T03:09:15;16.90;;;7.70;;
72590;SDS011;60625;51.212;5.952;2023-07-09T03:14:16;13.30;;;7.80;;
72590;SDS011;60625;51.212;5.952;2023-07-09T03:19:17;17.80;;;7.70;;
72590;SDS011;60625;51.212;5.952;2023-07-09T03:24:17;12.60;;;8.20;;
72590;SDS011;60625;51.212;5.952;2023-07-09T03:29:21;11.90;;;7.80;;
72590;SDS011;60625;51.212;5.952;2023-07-09T03:34:21;17.50;;;7.40;;
72590;SDS011;60625;51.212;5.952;2023-07-09T03:39:22;12.90;;;7.40;;
72590;SDS011;60625;51.212;5.952;2023-07-09T03:44:22;14.20;;;7.80;;
72590;SDS011;60625;51.212;5.952;2023-07-09T03:49:23;13.30;;;7.90;;
72590;SDS011;60625;51.212;5.952;2023-07-09T03:54:24;17.50;;;7.70;;
72590;SDS011;60625;51.212;5.952;2023-07-09T03:59:24;11.90;;;6.90;;
72590;SDS011;60625;51.212;5.952;2023-07-09T04:04:25;16.20;;;6.90;;
72590;SDS011;60625;51.212;5.952;2023-07-09T04:09:25;13.50;;;7.70;;
72590;SDS011;60625;51.212;5.952;2023-07-09T04:14:26;12.60;;;7.80;;
72590;SDS011;60625;51.212;5.952;2023-07-09T04:19:27;17.80;;;7.20;;
72590;SDS011;60625;51.212;5.952;2023-07-09T04:24:27;14.30;;;7.40;;
72590;SDS011;60625;51.212;5.952;2023-07-09T04:29:30;17.10;;;8.20;;
72590;SDS011;60625;51.212;5.952;2023-07-09T04:34:31;15.40;;;7.90;;
72590;SDS011;60625;51.212;5.952;2023-07-09T04:39:31;11.80;;;7.20;;
72590;SDS011;60625;51.212;5.952;2023-07-09T04:44:32;13.40;;;7.30;;
72590;SDS011;60625;51.212;5.952;2023-07-09T04:49:33;15.00;;;7.40;;
72590;SDS011;60625;51.212;5.952;2023-07-09T04:54:34;11.90;;;6.70;;
72590;SDS011;60625;51.212;5.952;2023-07-09T04:59:38;14.50;;;7.20;;
72590;SDS011;60625;51.212;5.952;2023-07-09T05:04:39;16.80;;;7.70;;
72590;SDS011;60625;51.212;5.952;2023-07-09T05:09:39;13.40;;;6.70;;
72590;SDS011;60625;51.212;5.952;2023-07-09T05:14:40;13.40;;;6.20;;
72590;SDS011;60625;51.212;5.952;2023-07-09T05:19:41;14.40;;;6.50;;
72590;SDS011;60625;51.212;5.952;2023-07-09T05:24:41;12.30;;;6.80;;
72590;SDS011;60625;51.212;5.952;2023-07-09T05:29:42;10.90;;;6.20;;
72590;SDS011;60625;51.212;5.952;2023-07-09T05:34:43;12.70;;;5.50;;
72590;SDS011;60625;51.212;5.952;2023-07-09T05:39:43;12.00;;;6.00;;
72590;SDS011;60625;51.212;5.952;2023-07-09T05:44:44;10.50;;;6.20;;
72590;SDS011;60625;51.212;5.952;2023-07-09T05:49:48;16.70;;;7.40;;
72590;SDS011;60625;51.212;5.952;2023-07-09T05:54:51;15.10;;;6.90;;
72590;SDS011;60625;51.212;5.952;2023-07-09T05:59:53;13.30;;;5.70;;
72590;SDS011;60625;51.212;5.952;2023-07-09T06:04:53;15.50;;;7.00;;
72590;SDS011;60625;51.212;5.952;2023-07-09T06:09:53;13.70;;;6.60;;
72590;SDS011;60625;51.212;5.952;2023-07-09T06:14:54;12.20;;;6.60;;
72590;SDS011;60625;51.212;5.952;2023-07-09T06:19:55;13.50;;;6.00;;
72590;SDS011;60625;51.212;5.952;2023-07-09T06:24:55;12.30;;;6.30;;
72590;SDS011;60625;51.212;5.952;2023-07-09T06:29:56;11.00;;;6.20;;
72590;SDS011;60625;51.212;5.952;2023-07-09T06:34:56;10.40;;;6.60;;
72590;SDS011;60625;51.212;5.952;2023-07-09T06:39:56;18.80;;;6.70;;
72590;SDS011;60625;51.212;5.952;2023-07-09T06:44:57;12.70;;;7.20;;
72590;SDS011;60625;51.212;5.952;2023-07-09T06:49:57;13.70;;;6.30;;
72590;SDS011;60625;51.212;5.952;2023-07-09T06:54:58;15.00;;;6.20;;
72590;SDS011;60625;51.212;5.952;2023-07-09T06:59:58;18.20;;;6.50;;
72590;SDS011;60625;51.212;5.952;2023-07-09T07:04:59;14.00;;;5.70;;
72590;SDS011;60625;51.212;5.952;2023-07-09T07:09:59;13.30;;;5.90;;
72590;SDS011;60625;51.212;5.952;2023-07-09T07:15:00;12.00;;;5.60;;
72590;SDS011;60625;51.212;5.952;2023-07-09T07:20:01;13.70;;;4.90;;
72590;SDS011;60625;51.212;5.952;2023-07-09T07:25:02;11.20;;;5.40;;
72590;SDS011;60625;51.212;5.952;2023-07-09T07:30:04;14.80;;;5.70;;
72590;SDS011;60625;51.212;5.952;2023-07-09T07:35:08;10.90;;;4.50;;
72590;SDS011;60625;51.212;5.952;2023-07-09T07:40:10;12.40;;;4.40;;
72590;SDS011;60625;51.212;5.952;2023-07-09T07:45:11;11.40;;;5.00;;
72590;SDS011;60625;51.212;5.952;2023-07-09T07:50:11;11.10;;;5.20;;
72590;SDS011;60625;51.212;5.952;2023-07-09T07:55:12;9.20;;;4.80;;
72590;SDS011;60625;51.212;5.952;2023-07-09T08:00:13;9.00;;;4.10;;
72590;SDS011;60625;51.212;5.952;2023-07-09T08:05:14;12.50;;;3.70;;
72590;SDS011;60625;51.212;5.952;2023-07-09T08:10:15;10.40;;;4.20;;
72590;SDS011;60625;51.212;5.952;2023-07-09T08:15:16;10.80;;;4.80;;
72590;SDS011;60625;51.212;5.952;2023-07-09T08:20:18;10.90;;;5.20;;
72590;SDS011;60625;51.212;5.952;2023-07-09T08:25:18;12.40;;;4.90;;
72590;SDS011;60625;51.212;5.952;2023-07-09T08:30:19;10.90;;;4.30;;
72590;SDS011;60625;51.212;5.952;2023-07-09T08:35:19;9.20;;;4.20;;
72590;SDS011;60625;51.212;5.952;2023-07-09T08:40:19;8.50;;;4.60;;
72590;SDS011;60625;51.212;5.952;2023-07-09T08:50:47;13.80;;;5.00;;
72590;SDS011;60625;51.212;5.952;2023-07-09T08:55:51;11.80;;;4.30;;
72590;SDS011;60625;51.212;5.952;2023-07-09T09:00:59;10.60;;;4.40;;
72590;SDS011;60625;51.212;5.952;2023-07-09T09:06:01;10.30;;;4.70;;
72590;SDS011;60625;51.212;5.952;2023-07-09T09:16:35;12.50;;;4.70;;
72590;SDS011;60625;51.212;5.952;2023-07-09T09:21:39;11.00;;;4.70;;
72590;SDS011;60625;51.212;5.952;2023-07-09T09:26:42;10.80;;;4.70;;
72590;SDS011;60625;51.212;5.952;2023-07-09T09:31:46;7.80;;;3.90;;
72590;SDS011;60625;51.212;5.952;2023-07-09T09:36:49;11.00;;;3.90;;
72590;SDS011;60625;51.212;5.952;2023-07-09T09:41:53;9.50;;;3.60;;
72590;SDS011;60625;51.212;5.952;2023-07-09T09:46:58;8.50;;;4.40;;
72590;SDS011;60625;51.212;5.952;2023-07-09T09:52:01;9.60;;;3.80;;
72590;SDS011;60625;51.212;5.952;2023-07-09T09:57:04;9.70;;;4.10;;
72590;SDS011;60625;51.212;5.952;2023-07-09T10:02:23;7.90;;;3.90;;
72590;SDS011;60625;51.212;5.952;2023-07-09T10:07:35;8.90;;;3.60;;
72590;SDS011;60625;51.212;5.952;2023-07-09T10:12:45;8.00;;;3.90;;
72590;SDS011;60625;51.212;5.952;2023-07-09T10:18:03;9.70;;;3.90;;
72590;SDS011;60625;51.212;5.952;2023-07-09T10:23:13;8.40;;;4.60;;
72590;SDS011;60625;51.212;5.952;2023-07-09T10:34:10;6.80;;;3.60;;
72590;SDS011;60625;51.212;5.952;2023-07-09T10:39:43;7.40;;;3.90;;
72590;SDS011;60625;51.212;5.952;2023-07-09T10:44:55;6.40;;;3.70;;
72590;SDS011;60625;51.212;5.952;2023-07-09T10:49:59;8.90;;;4.00;;
72590;SDS011;60625;51.212;5.952;2023-07-09T11:00:21;7.60;;;4.10;;
72590;SDS011;60625;51.212;5.952;2023-07-09T11:05:25;11.70;;;4.50;;
72590;SDS011;60625;51.212;5.952;2023-07-09T11:10:29;10.00;;;4.00;;
72590;SDS011;60625;51.212;5.952;2023-07-09T11:15:41;7.80;;;3.90;;
72590;SDS011;60625;51.212;5.952;2023-07-09T11:20:45;8.50;;;4.10;;
72590;SDS011;60625;51.212;5.952;2023-07-09T11:25:48;6.40;;;3.50;;
72590;SDS011;60625;51.212;5.952;2023-07-09T11:30:52;10.20;;;3.70;;
72590;SDS011;60625;51.212;5.952;2023-07-09T11:36:07;8.90;;;4.10;;
72590;SDS011;60625;51.212;5.952;2023-07-09T11:41:38;9.60;;;4.30;;
72590;SDS011;60625;51.212;5.952;2023-07-09T11:47:03;8.20;;;4.30;;
72590;SDS011;60625;51.212;5.952;2023-07-09T11:52:52;7.90;;;4.10;;
72590;SDS011;60625;51.212;5.952;2023-07-09T11:58:00;7.60;;;3.80;;
72590;SDS011;60625;51.212;5.952;2023-07-09T12:03:02;9.00;;;4.00;;
72590;SDS011;60625;51.212;5.952;2023-07-09T12:08:05;7.10;;;4.30;;
72590;SDS011;60625;51.212;5.952;2023-07-09T12:13:11;9.60;;;3.90;;
72590;SDS011;60625;51.212;5.952;2023-07-09T12:18:14;11.20;;;3.50;;
72590;SDS011;60625;51.212;5.952;2023-07-09T12:23:27;7.30;;;3.20;;
72590;SDS011;60625;51.212;5.952;2023-07-09T12:28:30;8.10;;;3.50;;
72590;SDS011;60625;51.212;5.952;2023-07-09T12:33:30;8.40;;;3.60;;
72590;SDS011;60625;51.212;5.952;2023-07-09T12:38:41;9.50;;;4.70;;
72590;SDS011;60625;51.212;5.952;2023-07-09T12:43:43;9.50;;;3.90;;
72590;SDS011;60625;51.212;5.952;2023-07-09T12:48:45;12.40;;;4.20;;
72590;SDS011;60625;51.212;5.952;2023-07-09T12:53:48;7.50;;;4.40;;
72590;SDS011;60625;51.212;5.952;2023-07-09T12:58:49;9.40;;;5.30;;
72590;SDS011;60625;51.212;5.952;2023-07-09T13:03:56;7.20;;;4.10;;
72590;SDS011;60625;51.212;5.952;2023-07-09T13:09:01;6.70;;;3.80;;
72590;SDS011;60625;51.212;5.952;2023-07-09T13:14:06;11.40;;;4.50;;
72590;SDS011;60625;51.212;5.952;2023-07-09T13:19:21;8.10;;;4.10;;
72590;SDS011;60625;51.212;5.952;2023-07-09T13:24:28;7.20;;;3.70;;
72590;SDS011;60625;51.212;5.952;2023-07-09T13:29:31;9.40;;;4.30;;
72590;SDS011;60625;51.212;5.952;2023-07-09T13:34:33;8.10;;;3.80;;
72590;SDS011;60625;51.212;5.952;2023-07-09T13:39:34;12.40;;;4.30;;
72590;SDS011;60625;51.212;5.952;2023-07-09T13:44:34;10.40;;;5.20;;
72590;SDS011;60625;51.212;5.952;2023-07-09T13:49:35;11.80;;;5.00;;
72590;SDS011;60625;51.212;5.952;2023-07-09T13:54:36;11.30;;;5.40;;
72590;SDS011;60625;51.212;5.952;2023-07-09T13:59:38;13.60;;;6.10;;
72590;SDS011;60625;51.212;5.952;2023-07-09T14:04:39;14.10;;;7.10;;
72590;SDS011;60625;51.212;5.952;2023-07-09T14:09:39;10.60;;;4.30;;
72590;SDS011;60625;51.212;5.952;2023-07-09T14:14:40;11.00;;;4.90;;
72590;SDS011;60625;51.212;5.952;2023-07-09T14:19:43;12.40;;;7.30;;
72590;SDS011;60625;51.212;5.952;2023-07-09T14:24:43;12.60;;;6.50;;
72590;SDS011;60625;51.212;5.952;2023-07-09T14:29:45;11.60;;;6.30;;
72590;SDS011;60625;51.212;5.952;2023-07-09T14:34:46;12.30;;;7.80;;
72590;SDS011;60625;51.212;5.952;2023-07-09T14:39:46;12.10;;;7.70;;
72590;SDS011;60625;51.212;5.952;2023-07-09T14:44:47;8.50;;;5.90;;
72590;SDS011;60625;51.212;5.952;2023-07-09T14:49:48;10.50;;;6.30;;
72590;SDS011;60625;51.212;5.952;2023-07-09T14:54:49;11.50;;;7.10;;
72590;SDS011;60625;51.212;5.952;2023-07-09T14:59:53;14.70;;;7.90;;
72590;SDS011;60625;51.212;5.952;2023-07-09T15:04:53;12.50;;;7.90;;
72590;SDS011;60625;51.212;5.952;2023-07-09T15:09:55;12.30;;;8.40;;
72590;SDS011;60625;51.212;5.952;2023-07-09T15:15:03;11.20;;;7.00;;
72590;SDS011;60625;51.212;5.952;2023-07-09T15:20:15;12.50;;;7.60;;
72590;SDS011;60625;51.212;5.952;2023-07-09T15:25:22;13.00;;;8.60;;
72590;SDS011;60625;51.212;5.952;2023-07-09T15:30:30;15.60;;;9.60;;
72590;SDS011;60625;51.212;5.952;2023-07-09T15:35:33;14.40;;;8.20;;
72590;SDS011;60625;51.212;5.952;2023-07-09T15:40:35;13.70;;;7.60;;
72590;SDS011;60625;51.212;5.952;2023-07-09T15:45:39;14.00;;;8.20;;
72590;SDS011;60625;51.212;5.952;2023-07-09T15:50:42;12.60;;;8.00;;
72590;SDS011;60625;51.212;5.952;2023-07-09T15:55:43;13.50;;;8.10;;
72590;SDS011;60625;51.212;5.952;2023-07-09T16:00:44;14.20;;;8.50;;
72590;SDS011;60625;51.212;5.952;2023-07-09T16:05:45;12.40;;;7.90;;
72590;SDS011;60625;51.212;5.952;2023-07-09T16:10:46;11.90;;;7.80;;
72590;SDS011;60625;51.212;5.952;2023-07-09T16:15:47;16.10;;;9.00;;
72590;SDS011;60625;51.212;5.952;2023-07-09T16:20:49;15.90;;;8.00;;
72590;SDS011;60625;51.212;5.952;2023-07-09T16:25:50;15.60;;;8.50;;
72590;SDS011;60625;51.212;5.952;2023-07-09T16:30:51;16.30;;;8.90;;
72590;SDS011;60625;51.212;5.952;2023-07-09T16:35:54;14.50;;;9.10;;
72590;SDS011;60625;51.212;5.952;2023-07-09T16:40:55;14.90;;;11.50;;
72590;SDS011;60625;51.212;5.952;2023-07-09T16:45:56;15.20;;;9.50;;
72590;SDS011;60625;51.212;5.952;2023-07-09T16:50:56;15.40;;;9.90;;
72590;SDS011;60625;51.212;5.952;2023-07-09T16:55:57;15.90;;;10.10;;
72590;SDS011;60625;51.212;5.952;2023-07-09T17:00:58;17.30;;;10.20;;
72590;SDS011;60625;51.212;5.952;2023-07-09T17:05:58;16.80;;;11.80;;
72590;SDS011;60625;51.212;5.952;2023-07-09T17:11:01;16.10;;;11.70;;
72590;SDS011;60625;51.212;5.952;2023-07-09T17:16:03;14.30;;;9.40;;
72590;SDS011;60625;51.212;5.952;2023-07-09T17:21:04;14.10;;;9.80;;
72590;SDS011;60625;51.212;5.952;2023-07-09T17:26:04;15.80;;;10.80;;
72590;SDS011;60625;51.212;5.952;2023-07-09T17:31:05;15.50;;;10.40;;
72590;SDS011;60625;51.212;5.952;2023-07-09T17:36:11;15.80;;;10.90;;
72590;SDS011;60625;51.212;5.952;2023-07-09T17:41:13;14.90;;;11.50;;
72590;SDS011;60625;51.212;5.952;2023-07-09T17:46:14;17.30;;;11.70;;
72590;SDS011;60625;51.212;5.952;2023-07-09T17:51:15;16.00;;;11.60;;
72590;SDS011;60625;51.212;5.952;2023-07-09T17:56:21;16.00;;;12.00;;
72590;SDS011;60625;51.212;5.952;2023-07-09T18:01:22;17.60;;;10.60;;
72590;SDS011;60625;51.212;5.952;2023-07-09T18:06:23;18.50;;;12.30;;
72590;SDS011;60625;51.212;5.952;2023-07-09T18:11:27;16.80;;;11.50;;
72590;SDS011;60625;51.212;5.952;2023-07-09T18:16:28;16.50;;;11.70;;
72590;SDS011;60625;51.212;5.952;2023-07-09T18:21:29;17.50;;;12.30;;
72590;SDS011;60625;51.212;5.952;2023-07-09T18:26:30;16.50;;;13.20;;
72590;SDS011;60625;51.212;5.952;2023-07-09T18:31:31;20.60;;;12.40;;
72590;SDS011;60625;51.212;5.952;2023-07-09T18:36:32;18.30;;;11.50;;
72590;SDS011;60625;51.212;5.952;2023-07-09T18:41:32;18.20;;;12.40;;
72590;SDS011;60625;51.212;5.952;2023-07-09T18:46:33;17.50;;;12.90;;
72590;SDS011;60625;51.212;5.952;2023-07-09T18:51:33;18.60;;;12.40;;
72590;SDS011;60625;51.212;5.952;2023-07-09T18:56:33;17.40;;;12.40;;
72590;SDS011;60625;51.212;5.952;2023-07-09T19:01:34;18.20;;;13.80;;
72590;SDS011;60625;51.212;5.952;2023-07-09T19:06:35;16.80;;;12.80;;
72590;SDS011;60625;51.212;5.952;2023-07-09T19:11:36;18.00;;;13.20;;
72590;SDS011;60625;51.212;5.952;2023-07-09T19:16:37;16.60;;;12.40;;
72590;SDS011;60625;51.212;5.952;2023-07-09T19:21:38;18.20;;;13.20;;
72590;SDS011;60625;51.212;5.952;2023-07-09T19:26:38;21.00;;;13.90;;
72590;SDS011;60625;51.212;5.952;2023-07-09T19:31:40;15.60;;;13.30;;
72590;SDS011;60625;51.212;5.952;2023-07-09T19:36:42;16.70;;;12.70;;
72590;SDS011;60625;51.212;5.952;2023-07-09T19:41:42;15.50;;;10.00;;
72590;SDS011;60625;51.212;5.952;2023-07-09T19:46:43;14.70;;;8.90;;
72590;SDS011;60625;51.212;5.952;2023-07-09T19:51:43;13.60;;;8.80;;
72590;SDS011;60625;51.212;5.952;2023-07-09T19:56:46;11.20;;;7.70;;
72590;SDS011;60625;51.212;5.952;2023-07-09T20:01:49;12.80;;;8.20;;
72590;SDS011;60625;51.212;5.952;2023-07-09T20:06:51;12.60;;;7.70;;
72590;SDS011;60625;51.212;5.952;2023-07-09T20:11:51;11.50;;;7.50;;
72590;SDS011;60625;51.212;5.952;2023-07-09T20:16:52;12.20;;;7.50;;
72590;SDS011;60625;51.212;5.952;2023-07-09T20:21:52;11.90;;;7.80;;
72590;SDS011;60625;51.212;5.952;2023-07-09T20:26:53;16.10;;;8.00;;
72590;SDS011;60625;51.212;5.952;2023-07-09T20:31:55;13.20;;;6.80;;
72590;SDS011;60625;51.212;5.952;2023-07-09T20:36:57;14.80;;;6.50;;
72590;SDS011;60625;51.212;5.952;2023-07-09T20:41:57;12.10;;;7.30;;
72590;SDS011;60625;51.212;5.952;2023-07-09T20:46:58;13.30;;;6.30;;
72590;SDS011;60625;51.212;5.952;2023-07-09T20:51:59;10.40;;;5.40;;
72590;SDS011;60625;51.212;5.952;2023-07-09T20:57:00;10.90;;;6.40;;
72590;SDS011;60625;51.212;5.952;2023-07-09T21:02:17;12.20;;;6.20;;
72590;SDS011;60625;51.212;5.952;2023-07-09T21:07:24;9.10;;;5.00;;
72590;SDS011;60625;51.212;5.952;2023-07-09T21:12:25;9.50;;;5.20;;
72590;SDS011;60625;51.212;5.952;2023-07-09T21:17:25;8.70;;;5.10;;
72590;SDS011;60625;51.212;5.952;2023-07-09T21:22:29;10.10;;;5.80;;
72590;SDS011;60625;51.212;5.952;2023-07-09T21:27:29;10.20;;;5.60;;
72590;SDS011;60625;51.212;5.952;2023-07-09T21:32:30;8.70;;;5.30;;
72590;SDS011;60625;51.212;5.952;2023-07-09T21:37:31;9.80;;;5.70;;
72590;SDS011;60625;51.212;5.952;2023-07-09T21:42:31;8.00;;;5.20;;
72590;SDS011;60625;51.212;5.952;2023-07-09T21:47:31;8.40;;;5.20;;
72590;SDS011;60625;51.212;5.952;2023-07-09T21:52:32;10.10;;;5.70;;
72590;SDS011;60625;51.212;5.952;2023-07-09T21:57:32;10.90;;;5.90;;
72590;SDS011;60625;51.212;5.952;2023-07-09T22:02:33;9.70;;;5.50;;
72590;SDS011;60625;51.212;5.952;2023-07-09T22:07:33;12.00;;;6.50;;
72590;SDS011;60625;51.212;5.952;2023-07-09T22:12:34;9.20;;;6.40;;
72590;SDS011;60625;51.212;5.952;2023-07-09T22:17:34;12.00;;;6.80;;
72590;SDS011;60625;51.212;5.952;2023-07-09T22:22:35;9.20;;;6.30;;
72590;SDS011;60625;51.212;5.952;2023-07-09T22:27:36;10.60;;;6.20;;
72590;SDS011;60625;51.212;5.952;2023-07-09T22:32:37;9.30;;;6.30;;
72590;SDS011;60625;51.212;5.952;2023-07-09T22:37:42;12.50;;;7.10;;
72590;SDS011;60625;51.212;5.952;2023-07-09T22:42:43;11.30;;;7.20;;
72590;SDS011;60625;51.212;5.952;2023-07-09T22:47:44;11.00;;;5.80;;
72590;SDS011;60625;51.212;5.952;2023-07-09T22:52:50;11.50;;;6.90;;
72590;SDS011;60625;51.212;5.952;2023-07-09T22:57:51;11.00;;;6.90;;
72590;SDS011;60625;51.212;5.952;2023-07-09T23:02:52;9.60;;;7.60;;
72590;SDS011;60625;51.212;5.952;2023-07-09T23:07:55;10.70;;;6.90;;
72590;SDS011;60625;51.212;5.952;2023-07-09T23:12:55;10.70;;;6.60;;
72590;SDS011;60625;51.212;5.952;2023-07-09T23:17:57;11.10;;;7.70;;
72590;SDS011;60625;51.212;5.952;2023-07-09T23:22:58;11.10;;;7.60;;
72590;SDS011;60625;51.212;5.952;2023-07-09T23:27:59;12.80;;;8.10;;
72590;SDS011;60625;51.212;5.952;2023-07-09T23:33:03;14.50;;;8.30;;
72590;SDS011;60625;51.212;5.952;2023-07-09T23:38:29;15.30;;;9.10;;
72590;SDS011;60625;51.212;5.952;2023-07-09T23:43:37;13.90;;;9.20;;
72590;SDS011;60625;51.212;5.952;2023-07-09T23:48:42;12.40;;;8.70;;
72590;SDS011;60625;51.212;5.952;2023-07-09T23:53:43;13.90;;;9.20;;
72590;SDS011;60625;51.212;5.952;2023-07-09T23:58:44;13.50;;;8.30;;
